Home > Products > Valid Products > MTR

000
SAUS43 KEAX 030553
MTRCDJ
METAR KCDJ 030552Z AUTO 00000KT 06/06 A3007 RMK AO1 SLP186 T00610061
10156 20056 401720056 53002





000
SAUS43 KEAX 030453
MTRCDJ
METAR KCDJ 030452Z AUTO 00000KT 06/06 A3006 RMK AO1 SLP184 T00610056





000
SAUS43 KEAX 030354
MTRCDJ
METAR KCDJ 030352Z AUTO 00000KT 07/07 A3007 RMK AO1 SLP185 T00720067





000
SAUS43 KEAX 030254
MTRCDJ
METAR KCDJ 030252Z AUTO 00000KT 09/08 A3007 RMK AO1 SLP184 T00890078
53002





000
SAUS43 KEAX 030153
MTRCDJ
METAR KCDJ 030152Z AUTO 00000KT 10/09 A3006 RMK AO1 SLP182 T01000089





000
SAUS43 KEAX 030153
MTRCDJ
METAR KCDJ 030152Z AUTO 00000KT 10/09 A3006 RMK AO1 SLP182 T01000089





000
SAUS43 KEAX 030054
MTRCDJ
METAR KCDJ 030052Z AUTO 12004KT 13/09 A3006 RMK AO1 SLP180 T01330094





000
SAUS43 KEAX 022353
MTRCDJ
METAR KCDJ 022352Z AUTO 00000KT 15/06 A3006 RMK AO1 SLP180 T01500056
10172 20139 55001





000
SAUS43 KEAX 022353
MTRCDJ
METAR KCDJ 022352Z AUTO 00000KT 15/06 A3006 RMK AO1 SLP180 T01500056
10172 20139 55001





000
SAUS43 KEAX 022253
MTRCDJ
METAR KCDJ 022252Z AUTO 00000KT 15/06 A3006 RMK AO1 SLP180 T01500061





000
SAUS43 KEAX 022154
MTRCDJ
METAR KCDJ 022152Z AUTO 04006KT 16/05 A3006 RMK AO1 SLP179 T01560050





000
SAUS43 KEAX 022154
MTRCDJ
METAR KCDJ 022152Z AUTO 04006KT 16/05 A3006 RMK AO1 SLP179 T01560050





000
SAUS43 KEAX 022054
MTRCDJ
METAR KCDJ 022052Z AUTO 04005KT 17/07 A3006 RMK AO1 SLP179 T01670067
56013





000
SAUS43 KEAX 022054
MTRCDJ
METAR KCDJ 022052Z AUTO 04005KT 17/07 A3006 RMK AO1 SLP179 T01670067
56013





000
SAUS43 KEAX 021953
MTRCDJ
METAR KCDJ 021952Z AUTO 05007KT 16/06 A3008 RMK AO1 SLP184 T01610061





000
SAUS43 KEAX 021853
MTRCDJ
METAR KCDJ 021852Z AUTO 00000KT 16/08 A3008 RMK AO1 SLP187 T01560083





000
SAUS43 KEAX 021853
MTRCDJ
METAR KCDJ 021852Z AUTO 00000KT 16/08 A3008 RMK AO1 SLP187 T01560083





000
SAUS43 KEAX 021753
MTRCDJ
METAR KCDJ 021752Z AUTO 04003KT 14/08 A3010 RMK AO1 SLP194 T01390078
10139 20083 58005





000
SAUS43 KEAX 021653
MTRCDJ
METAR KCDJ 021652Z AUTO 02006KT 13/08 A3012 RMK AO1 SLP200 T01330078





000
SAUS43 KEAX 021553
MTRCDJ
METAR KCDJ 021552Z AUTO VRB04KT 12/09 A3011 RMK AO1 SLP198 T01220089





000
SAUS43 KEAX 021453
MTRCDJ
METAR KCDJ 021452Z AUTO 36003KT 11/09 A3012 RMK AO1 SLP201 T01060089





000
SAUS43 KEAX 021353
MTRCDJ
METAR KCDJ 021352Z AUTO 00000KT 11/08 A3012 RMK AO1 SLP200 T01060083





000
SAUS43 KEAX 021253
MTRCDJ
METAR KCDJ 021252Z AUTO VRB04KT 10/08 A3011 RMK AO1 SLP198 T01000083





000
SAUS43 KEAX 021154
MTRCDJ
METAR KCDJ 021152Z AUTO 36003KT 08/07 A3010 RMK AO1 SLP196 70002
T00830072 10100 20078 55006





000
SAUS43 KEAX 021154
MTRCDJ
METAR KCDJ 021152Z AUTO 36003KT 08/07 A3010 RMK AO1 SLP196 70002
T00830072 10100 20078 55006





000
SAUS43 KEAX 021053
MTRCDJ
METAR KCDJ 021052Z AUTO 00000KT 08/07 A3010 RMK AO1 SLP195 T00830072





000
SAUS43 KEAX 020953
MTRCDJ
METAR KCDJ 020952Z AUTO 00000KT 09/08 A3010 RMK AO1 SLP196 T00940078





000
SAUS43 KEAX 020853
MTRCDJ
METAR KCDJ 020852Z AUTO 31003KT 10/08 A3012 RMK AO1 SLP201 T01000078
58006





000
SAUS43 KEAX 020853
MTRCDJ
METAR KCDJ 020852Z AUTO 31003KT 10/08 A3012 RMK AO1 SLP201 T01000078
58006





000
SAUS43 KEAX 020753
MTRCDJ
METAR KCDJ 020752Z AUTO 00000KT 10/08 A3012 RMK AO1 SLP202 T01000078





000
SAUS43 KEAX 020753
MTRCDJ
METAR KCDJ 020752Z AUTO 00000KT 10/08 A3012 RMK AO1 SLP202 T01000078





000
SAUS43 KEAX 020653
MTRCDJ
METAR KCDJ 020652Z AUTO 31003KT 10/08 A3013 RMK AO1 SLP205 T01000078





000
SAUS43 KEAX 020553
MTRCDJ
METAR KCDJ 020552Z AUTO 32004KT 10/08 A3014 RMK AO1 SLP207 T01000078
10117 20100 401440100 51010





000
SAUS43 KEAX 020453
MTRCDJ
METAR KCDJ 020452Z AUTO 00000KT 10/08 A3013 RMK AO1 SLP203 T01000078





000
SAUS43 KEAX 020453
MTRCDJ
METAR KCDJ 020452Z AUTO 00000KT 10/08 A3013 RMK AO1 SLP203 T01000078





000
SAUS43 KEAX 020353
MTRCDJ
METAR KCDJ 020352Z AUTO 00000KT 10/08 A3012 RMK AO1 SLP200 T01000078





000
SAUS43 KEAX 020253
MTRCDJ
METAR KCDJ 020252Z AUTO VRB04KT 10/08 A3011 RMK AO1 SLP196 T01000078
53011





000
SAUS43 KEAX 020153
MTRCDJ
METAR KCDJ 020152Z AUTO 35006KT 11/07 A3010 RMK AO1 SLP192 T01060072





000
SAUS43 KEAX 020053
MTRCDJ
METAR KCDJ 020052Z AUTO VRB04KT 11/07 A3008 RMK AO1 SLP187 T01110072





000
SAUS43 KEAX 020053
MTRCDJ
METAR KCDJ 020052Z AUTO VRB04KT 11/07 A3008 RMK AO1 SLP187 T01110072





000
SAUS43 KEAX 012353
MTRCDJ
METAR KCDJ 012352Z AUTO VRB04KT 12/08 A3007 RMK AO1 SLP185 T01170083
10144 20117 53014





000
SAUS43 KEAX 012353
MTRCDJ
METAR KCDJ 012352Z AUTO VRB04KT 12/08 A3007 RMK AO1 SLP185 T01170083
10144 20117 53014





000
SAUS43 KEAX 012253
MTRCDJ
METAR KCDJ 012252Z AUTO 35007KT 12/08 A3006 RMK AO1 SLP178 T01220083





000
SAUS43 KEAX 012253
MTRCDJ
METAR KCDJ 012252Z AUTO 35007KT 12/08 A3006 RMK AO1 SLP178 T01220083





000
SAUS43 KEAX 012154
MTRCDJ
METAR KCDJ 012152Z AUTO 32008G14KT 12/08 A3004 RMK AO1 SLP173
T01170083





000
SAUS43 KEAX 012053
MTRCDJ
METAR KCDJ 012052Z AUTO VRB05KT 12/09 A3003 RMK AO1 SLP170 T01220089
51015





000
SAUS43 KEAX 012053
MTRCDJ
METAR KCDJ 012052Z AUTO VRB05KT 12/09 A3003 RMK AO1 SLP170 T01220089
51015





000
SAUS43 KEAX 011954
MTRCDJ
METAR KCDJ 011952Z AUTO VRB05KT 12/09 A3002 RMK AO1 SLP165 T01220094





000
SAUS43 KEAX 011853
MTRCDJ
METAR KCDJ 011852Z AUTO VRB04KT 14/11 A3000 RMK AO1 SLP158 T01390111





000
SAUS43 KEAX 011853
MTRCDJ
METAR KCDJ 011852Z AUTO VRB04KT 14/11 A3000 RMK AO1 SLP158 T01390111





000
SAUS43 KEAX 011753
MTRCDJ
METAR KCDJ 011752Z AUTO 36005KT 13/11 A2999 RMK AO1 SLP154 60002
T01280106 10144 20111 51007





000
SAUS43 KEAX 011753
MTRCDJ
METAR KCDJ 011752Z AUTO 36005KT 13/11 A2999 RMK AO1 SLP154 60002
T01280106 10144 20111 51007





000
SAUS43 KEAX 011653
MTRCDJ
METAR KCDJ 011652Z AUTO 36003KT 14/11 A2998 RMK AO1 SLP151 T01390111





000
SAUS43 KEAX 011653
MTRCDJ
METAR KCDJ 011652Z AUTO 36003KT 14/11 A2998 RMK AO1 SLP151 T01390111





000
SAUS43 KEAX 011553
MTRCDJ
METAR KCDJ 011552Z AUTO 00000KT 12/11 A2998 RMK AO1 SLP154 P0002
T01220106





000
SAUS43 KEAX 011454
MTRCDJ
METAR KCDJ 011452Z AUTO 05004KT 12/10 A2997 RMK AO1 SLP149 T01170100
53017





000
SAUS43 KEAX 011353
MTRCDJ
METAR KCDJ 011352Z AUTO 04004KT 12/10 A2995 RMK AO1 SLP140 T01170100





000
SAUS43 KEAX 011353
MTRCDJ
METAR KCDJ 011352Z AUTO 04004KT 12/10 A2995 RMK AO1 SLP140 T01170100





000
SAUS43 KEAX 011253
MTRCDJ
METAR KCDJ 011252Z AUTO 05005KT 11/10 A2994 RMK AO1 SLP135 T01110100





000
SAUS43 KEAX 011253
MTRCDJ
METAR KCDJ 011252Z AUTO 05005KT 11/10 A2994 RMK AO1 SLP135 T01110100





000
SAUS43 KEAX 011153
MTRCDJ
METAR KCDJ 011152Z AUTO 06006KT 11/11 A2992 RMK AO1 SLP127 70010
T01110106 10139 20111 51010





000
SAUS43 KEAX 011153
MTRCDJ
METAR KCDJ 011152Z AUTO 06006KT 11/11 A2992 RMK AO1 SLP127 70010
T01110106 10139 20111 51010





000
SAUS43 KEAX 011053
MTRCDJ
METAR KCDJ 011052Z AUTO 05006KT 12/11 A2990 RMK AO1 SLP122 T01220111





000
SAUS43 KEAX 011053
MTRCDJ
METAR KCDJ 011052Z AUTO 05006KT 12/11 A2990 RMK AO1 SLP122 T01220111





000
SAUS43 KEAX 010953
MTRCDJ
METAR KCDJ 010952Z AUTO 36003KT 13/12 A2990 RMK AO1 SLP120 T01330122





000
SAUS43 KEAX 010953
MTRCDJ
METAR KCDJ 010952Z AUTO 36003KT 13/12 A2990 RMK AO1 SLP120 T01330122





000
SAUS43 KEAX 010853
MTRCDJ
METAR KCDJ 010852Z AUTO 07003KT 13/12 A2989 RMK AO1 SLP114 T01330122
52002





000
SAUS43 KEAX 010853
MTRCDJ
METAR KCDJ 010852Z AUTO 07003KT 13/12 A2989 RMK AO1 SLP114 T01330122
52002





000
SAUS43 KEAX 010753
MTRCDJ
METAR KCDJ 010752Z AUTO 06004KT 14/12 A2988 RMK AO1 SLP113 T01390122





000
SAUS43 KEAX 010653
MTRCDJ
METAR KCDJ 010652Z AUTO 00000KT 14/12 A2988 RMK AO1 SLP113 T01390122





000
SAUS43 KEAX 010553
MTRCDJ
METAR KCDJ 010552Z AUTO 00000KT 13/12 A2988 RMK AO1 SLP114 T01280117
10189 20106 402280106 51015





000
SAUS43 KEAX 010553
MTRCDJ
METAR KCDJ 010552Z AUTO 00000KT 13/12 A2988 RMK AO1 SLP114 T01280117
10189 20106 402280106 51015





000
SAUS43 KEAX 010453
MTRCDJ
METAR KCDJ 010452Z AUTO 36003KT 13/12 A2986 RMK AO1 SLP111 T01280117





000
SAUS43 KEAX 010353
MTRCDJ
METAR KCDJ 010352Z AUTO 00000KT 11/10 A2985 RMK AO1 SLP109 T01110100





000
SAUS43 KEAX 010254
MTRCDJ
METAR KCDJ 010252Z AUTO 00000KT 12/11 A2983 RMK AO1 SLP102 T01170106
53018





000
SAUS43 KEAX 010153
MTRCDJ
METAR KCDJ 010152Z AUTO 00000KT 14/11 A2981 RMK AO1 SLP092 T01440106





000
SAUS43 KEAX 010053
MTRCDJ
METAR KCDJ 010052Z AUTO 00000KT 17/10 A2980 RMK AO1 SLP086 T01720100





000
SAUS43 KEAX 010053
MTRCDJ
METAR KCDJ 010052Z AUTO 00000KT 17/10 A2980 RMK AO1 SLP086 T01720100





000
SAUS43 KEAX 302353
MTRCDJ
METAR KCDJ 302352Z AUTO VRB04KT 19/09 A2978 RMK AO1 SLP081 60001
T01890094 10228 20167 51022





000
SAUS43 KEAX 302253
MTRCDJ
METAR KCDJ 302252Z AUTO 27004G14KT 19/09 A2976 RMK AO1 SLP076
T01940094





000
SAUS43 KEAX 302153
MTRCDJ
METAR KCDJ 302152Z AUTO VRB04KT 21/12 A2974 RMK AO1 SLP065 T02110122





000
SAUS43 KEAX 302153
MTRCDJ
METAR KCDJ 302152Z AUTO VRB04KT 21/12 A2974 RMK AO1 SLP065 T02110122





000
SAUS43 KEAX 302053
MTRCDJ
METAR KCDJ 302052Z AUTO 24007G15KT 210V300 22/13 A2971 RMK AO1
SLP057 60001 T02220128 53009





000
SAUS43 KEAX 301953
MTRCDJ
METAR KCDJ 301952Z AUTO 30007KT 22/17 A2969 RMK AO1 SLP048 P0001
T02170167





000
SAUS43 KEAX 301853
MTRCDJ
METAR KCDJ 301852Z AUTO VRB03KT 21/17 A2968 RMK AO1 SLP045 T02060167





000
SAUS43 KEAX 301753
MTRCDJ
METAR KCDJ 301752Z AUTO 12003KT 17/15 A2968 RMK AO1 SLP049 60009
T01670150 10167 20117 58002





000
SAUS43 KEAX 301753
MTRCDJ
METAR KCDJ 301752Z AUTO 12003KT 17/15 A2968 RMK AO1 SLP049 60009
T01670150 10167 20117 58002





000
SAUS43 KEAX 301653
MTRCDJ
METAR KCDJ 301652Z AUTO VRB03KT 14/13 A2969 RMK AO1 SLP053 T01440133





000
SAUS43 KEAX 301553
MTRCDJ
METAR KCDJ 301552Z AUTO 10006KT 13/12 A2969 RMK AO1 SLP055 P0001
T01330122





000
SAUS43 KEAX 301453
MTRCDJ
METAR KCDJ 301452Z AUTO 10003KT 13/12 A2969 RMK AO1 SLP053 P0003
60008 T01280117 58012





000
SAUS43 KEAX 301353
MTRCDJ
METAR KCDJ 301352Z AUTO VRB05KT 12/12 A2971 RMK AO1 SLP061 P0002
T01220117





000
SAUS43 KEAX 301353
MTRCDJ
METAR KCDJ 301352Z AUTO VRB05KT 12/12 A2971 RMK AO1 SLP061 P0002
T01220117





000
SAUS43 KEAX 301253
MTRCDJ
METAR KCDJ 301252Z AUTO 08007KT 040V110 12/11 A2972 RMK AO1 SLP064
P0003 T01220111





000
SAUS43 KEAX 301153
MTRCDJ
METAR KCDJ 301152Z AUTO 08005KT 12/11 A2972 RMK AO1 SLP065 60012
70027 T01170106 10117 20111 56012





000
SAUS43 KEAX 301153
MTRCDJ
METAR KCDJ 301152Z AUTO 08005KT 12/11 A2972 RMK AO1 SLP065 60012
70027 T01170106 10117 20111 56012





000
SAUS43 KEAX 301053
MTRCDJ
METAR KCDJ 301052Z AUTO 09005KT 12/11 A2973 RMK AO1 SLP066 T01170106





000
SAUS43 KEAX 300953
MTRCDJ
METAR KCDJ 300952Z AUTO 07009KT 12/10 A2974 RMK AO1 SLP072 T01170100





000
SAUS43 KEAX 300853
MTRCDJ
METAR KCDJ 300852Z AUTO 04007KT 11/10 A2976 RMK AO1 SLP076 P0001
60012 T01110100 56035





000
SAUS43 KEAX 300753
MTRCDJ
METAR KCDJ 300752Z AUTO VRB04G17KT 12/10 A2980 RMK AO1 SLP092
T01170100





000
SAUS43 KEAX 300653
MTRCDJ
METAR KCDJ 300652Z AUTO 07014G23KT 040V100 11/10 A2975 RMK AO1
SLP073 P0011 T01110100





000
SAUS43 KEAX 300653
MTRCDJ
METAR KCDJ 300652Z AUTO 07014G23KT 040V100 11/10 A2975 RMK AO1
SLP073 P0011 T01110100





    US Dept of Commerce
    National Oceanic and Atmospheric Administration
    National Weather Service
    1325 East West Highway
    Silver Spring, MD 20910
    Page Author: NWS Internet Services Team
Disclaimer
Information Quality
Credits
Glossary
Privacy Policy
Freedom of Information Act (FOIA)
About Us
Career Opportunities